Time;durP1;ratioP1;P1;durP2;ratioP2;P2;SDS_P1;SDS_P2;PMS_P1;PMS_P2;Temp;Humidity;BMP_temperature;BMP_pressure;BME280_temperature;BME280_humidity;BME280_pressure;Samples;Min_cycle;Max_cycle;Signal;HPM_P1;HPM_P2
2021/01/07 00:00:11;;;;;;;20.92;10.48;;;1.00;97.40;;;;;;5128200;27;20047;-84
2021/01/07 00:02:37;;;;;;;24.73;10.93;;;1.00;97.40;;;;;;5139579;27;20039;-84
2021/01/07 00:05:05;;;;;;;23.23;10.65;;;1.00;97.40;;;;;;5146591;27;20038;-84
2021/01/07 00:07:30;;;;;;;25.63;10.00;;;1.00;97.50;;;;;;5117429;27;20078;-84
2021/01/07 00:09:56;;;;;;;29.42;10.45;;;1.00;97.50;;;;;;5127021;27;20116;-84
2021/01/07 00:12:22;;;;;;;22.80;9.77;;;1.10;97.50;;;;;;5119462;27;20435;-84
2021/01/07 00:14:48;;;;;;;32.47;9.60;;;1.00;97.50;;;;;;5121628;27;20047;-84
2021/01/07 00:17:26;;;;;;;25.42;9.43;;;1.00;97.60;;;;;;5139068;27;20136;-84
2021/01/07 00:19:52;;;;;;;17.27;9.73;;;1.10;97.60;;;;;;5146161;27;20063;-84
2021/01/07 00:22:19;;;;;;;20.40;10.68;;;1.10;97.90;;;;;;5120150;27;20085;-84
2021/01/07 00:24:45;;;;;;;23.83;10.18;;;1.00;97.60;;;;;;5146458;27;20058;-84
2021/01/07 00:27:10;;;;;;;17.95;9.73;;;1.10;97.70;;;;;;5143016;27;20042;-84
2021/01/07 00:29:36;;;;;;;17.88;8.40;;;1.00;97.70;;;;;;5128388;27;20039;-84
2021/01/07 00:32:02;;;;;;;16.65;8.88;;;1.10;97.70;;;;;;5128795;27;20047;-84
2021/01/07 00:34:28;;;;;;;16.02;8.85;;;1.10;97.80;;;;;;5128556;27;20422;-84
2021/01/07 00:37:03;;;;;;;13.18;7.88;;;1.10;97.80;;;;;;5122107;27;20671;-84
2021/01/07 00:39:36;;;;;;;14.07;8.00;;;1.10;97.80;;;;;;5126524;27;20090;-84
2021/01/07 00:42:02;;;;;;;16.77;8.35;;;1.10;97.80;;;;;;5142656;27;20042;-84
2021/01/07 00:44:31;;;;;;;16.13;9.05;;;1.10;97.80;;;;;;5146093;27;20530;-84
2021/01/07 00:46:56;;;;;;;15.32;8.65;;;1.10;97.80;;;;;;5148431;27;20150;-85
2021/01/07 00:49:28;;;;;;;13.60;8.75;;;1.20;97.80;;;;;;5138329;27;20071;-84
2021/01/07 00:51:54;;;;;;;17.05;8.00;;;1.10;97.80;;;;;;5128983;27;20173;-84
2021/01/07 00:54:22;;;;;;;13.07;8.23;;;1.20;97.90;;;;;;5130645;27;20498;-84
2021/01/07 00:56:48;;;;;;;14.32;7.18;;;1.20;97.90;;;;;;5150849;27;20081;-84
2021/01/07 00:59:14;;;;;;;13.07;8.30;;;1.20;97.90;;;;;;5123924;27;20047;-85
2021/01/07 01:01:49;;;;;;;14.18;7.85;;;1.20;97.90;;;;;;5146692;27;20071;-84
2021/01/07 01:04:16;;;;;;;14.77;7.57;;;1.20;98.00;;;;;;5135467;27;20160;-85
2021/01/07 01:06:44;;;;;;;13.20;7.18;;;1.20;98.00;;;;;;5125666;27;20570;-84
2021/01/07 01:09:11;;;;;;;9.10;6.20;;;1.20;98.00;;;;;;5119713;27;20422;-84
2021/01/07 01:11:47;;;;;;;14.07;7.82;;;1.20;98.00;;;;;;5124560;27;20034;-84
2021/01/07 01:14:18;;;;;;;12.07;7.10;;;1.20;98.00;;;;;;5137566;27;20416;-84
2021/01/07 01:16:48;;;;;;;8.45;5.97;;;1.20;98.00;;;;;;5142076;27;20168;-85
2021/01/07 01:19:15;;;;;;;10.02;5.85;;;1.30;98.00;;;;;;5133299;27;20047;-84
2021/01/07 01:21:41;;;;;;;9.98;6.50;;;1.30;98.20;;;;;;5123591;27;20054;-84
2021/01/07 01:24:08;;;;;;;11.82;6.45;;;1.20;97.90;;;;;;5117256;27;20055;-84
2021/01/07 01:26:34;;;;;;;9.27;5.32;;;1.30;98.00;;;;;;5136276;27;20085;-84
2021/01/07 01:29:00;;;;;;;8.75;5.57;;;1.30;98.00;;;;;;5135406;27;20035;-84
2021/01/07 01:31:27;;;;;;;10.35;5.45;;;1.30;98.00;;;;;;5128966;27;20035;-84
2021/01/07 01:33:53;;;;;;;10.27;5.45;;;1.30;97.90;;;;;;5141961;27;20031;-84
2021/01/07 01:36:28;;;;;;;9.25;5.88;;;1.30;98.00;;;;;;5139813;27;20043;-84
2021/01/07 01:39:24;;;;;;;9.23;5.63;;;1.30;98.00;;;;;;5148160;27;20586;-84
2021/01/07 01:41:54;;;;;;;8.45;5.75;;;1.30;98.00;;;;;;5124565;27;20134;-83
2021/01/07 01:44:22;;;;;;;10.05;5.70;;;1.30;98.00;;;;;;5128532;27;20039;-84
2021/01/07 01:46:48;;;;;;;9.23;5.47;;;1.40;98.00;;;;;;5124050;27;20130;-82
2021/01/07 01:49:15;;;;;;;9.02;5.75;;;1.30;98.00;;;;;;5129936;27;20064;-82
2021/01/07 01:51:41;;;;;;;11.60;6.40;;;1.40;98.30;;;;;;5113049;27;20050;-83
2021/01/07 01:54:07;;;;;;;13.07;6.18;;;1.30;97.90;;;;;;5131042;27;20150;-83
2021/01/07 01:56:34;;;;;;;11.55;6.15;;;1.40;98.00;;;;;;5142127;27;20126;-83
2021/01/07 01:59:00;;;;;;;9.50;6.00;;;1.30;98.00;;;;;;5128399;27;20060;-83
2021/01/07 02:01:26;;;;;;;10.60;6.88;;;1.30;97.90;;;;;;5138731;27;20084;-84
2021/01/07 02:03:53;;;;;;;11.13;6.03;;;1.30;98.00;;;;;;5125119;27;20042;-83
2021/01/07 02:06:22;;;;;;;11.38;6.88;;;1.30;98.30;;;;;;5137320;27;20039;-83
2021/01/07 02:08:49;;;;;;;11.10;7.22;;;1.40;98.00;;;;;;5126081;27;20047;-84
2021/01/07 02:11:16;;;;;;;13.02;8.20;;;1.40;98.00;;;;;;5141941;27;20039;-83
2021/01/07 02:13:50;;;;;;;13.80;8.40;;;1.40;98.00;;;;;;5144422;27;20039;-83
2021/01/07 02:16:22;;;;;;;11.88;7.80;;;1.40;97.90;;;;;;5121651;27;20050;-84
2021/01/07 02:18:51;;;;;;;11.88;8.02;;;1.40;98.00;;;;;;5128628;27;20048;-83
2021/01/07 02:21:17;;;;;;;11.10;8.00;;;1.40;98.00;;;;;;5123262;27;20099;-83
2021/01/07 02:24:01;;;;;;;13.35;7.88;;;1.40;98.00;;;;;;5124049;27;20180;-82
2021/01/07 02:26:27;;;;;;;13.88;7.97;;;1.40;98.00;;;;;;5116576;28;20024;-83
2021/01/07 02:28:53;;;;;;;11.77;7.60;;;1.40;98.00;;;;;;5128882;28;20038;-83
2021/01/07 02:31:19;;;;;;;13.75;7.65;;;1.40;98.00;;;;;;5120530;28;20414;-82
2021/01/07 02:33:45;;;;;;;12.00;7.30;;;1.40;98.00;;;;;;5122410;28;20040;-83
2021/01/07 02:36:12;;;;;;;13.30;7.07;;;1.40;98.00;;;;;;5121624;28;20051;-82
2021/01/07 02:38:38;;;;;;;12.23;6.63;;;1.50;98.00;;;;;;5115910;28;20039;-82
2021/01/07 02:41:04;;;;;;;11.35;6.35;;;1.50;98.00;;;;;;5118262;28;20095;-82
2021/01/07 02:43:31;;;;;;;9.27;5.97;;;1.40;98.00;;;;;;5115418;27;20057;-83
2021/01/07 02:45:57;;;;;;;10.82;6.18;;;1.40;98.30;;;;;;5122681;28;20431;-83
2021/01/07 02:48:22;;;;;;;9.95;5.38;;;1.40;98.00;;;;;;5118441;28;20028;-82
2021/01/07 02:50:48;;;;;;;12.77;5.82;;;1.50;98.10;;;;;;5121146;28;20065;-82
2021/01/07 02:53:14;;;;;;;10.05;5.65;;;1.50;98.00;;;;;;5101903;28;20050;-82
2021/01/07 02:55:40;;;;;;;10.15;5.82;;;1.60;98.10;;;;;;5126361;28;20055;-82
2021/01/07 02:58:06;;;;;;;8.45;5.10;;;1.50;98.10;;;;;;5116307;28;20039;-83
2021/01/07 03:00:32;;;;;;;13.85;5.55;;;1.50;98.10;;;;;;5122135;28;20038;-82
2021/01/07 03:02:58;;;;;;;9.75;5.35;;;1.50;98.10;;;;;;5122007;27;20043;-82
2021/01/07 03:05:24;;;;;;;12.57;5.80;;;1.50;98.10;;;;;;5122315;28;20437;-82
2021/01/07 03:07:50;;;;;;;11.27;5.53;;;1.50;98.10;;;;;;5120960;28;20031;-83
2021/01/07 03:10:16;;;;;;;11.25;5.32;;;1.50;98.10;;;;;;5125693;28;20404;-83
2021/01/07 03:12:41;;;;;;;9.43;4.32;;;1.60;98.20;;;;;;5124837;28;20406;-83
2021/01/07 03:15:07;;;;;;;11.48;5.22;;;1.50;98.10;;;;;;5115094;28;20459;-83
2021/01/07 03:17:33;;;;;;;12.88;4.60;;;1.50;98.10;;;;;;5121537;28;20027;-83
2021/01/07 03:20:00;;;;;;;7.70;4.43;;;1.50;98.10;;;;;;5117699;28;20083;-82
2021/01/07 03:22:25;;;;;;;8.90;4.65;;;1.50;98.10;;;;;;5123179;28;20043;-82
2021/01/07 03:24:51;;;;;;;10.13;4.68;;;1.50;98.10;;;;;;5126213;27;20158;-83
2021/01/07 03:27:17;;;;;;;8.18;4.30;;;1.50;98.20;;;;;;5125847;27;20043;-82
2021/01/07 03:29:43;;;;;;;7.93;4.55;;;1.50;98.20;;;;;;5120727;27;20057;-83
2021/01/07 03:32:09;;;;;;;6.72;4.03;;;1.50;98.20;;;;;;5120838;27;20057;-83
2021/01/07 03:34:35;;;;;;;5.53;3.63;;;1.50;98.10;;;;;;5121360;27;20406;-83
2021/01/07 03:37:00;;;;;;;7.78;4.40;;;1.60;98.20;;;;;;5145967;27;20047;-83
2021/01/07 03:39:26;;;;;;;8.20;3.63;;;1.50;98.10;;;;;;5122443;27;20777;-83
2021/01/07 03:41:52;;;;;;;9.23;4.22;;;1.50;98.20;;;;;;5129164;27;20121;-82
2021/01/07 03:44:19;;;;;;;6.95;3.58;;;1.50;98.10;;;;;;5141932;27;20047;-82
2021/01/07 03:46:44;;;;;;;9.75;3.80;;;1.50;98.10;;;;;;5128430;27;20486;-82
2021/01/07 03:49:10;;;;;;;6.80;3.85;;;1.50;98.50;;;;;;5125713;27;20115;-82
2021/01/07 03:51:36;;;;;;;8.27;3.67;;;1.50;98.10;;;;;;5111299;27;20090;-82
2021/01/07 03:54:02;;;;;;;6.15;3.70;;;1.50;98.20;;;;;;5124892;27;20063;-83
2021/01/07 03:56:28;;;;;;;7.43;3.97;;;1.50;98.20;;;;;;5119245;27;20096;-83
2021/01/07 03:58:54;;;;;;;7.50;3.45;;;1.50;98.20;;;;;;5141195;27;20058;-83
2021/01/07 04:01:20;;;;;;;5.55;3.35;;;1.50;98.10;;;;;;5116293;27;20121;-82
2021/01/07 04:03:45;;;;;;;4.82;3.42;;;1.40;98.10;;;;;;5133242;27;20102;-82
2021/01/07 04:06:11;;;;;;;7.68;4.03;;;1.50;98.20;;;;;;5123049;27;20142;-82
2021/01/07 04:08:37;;;;;;;7.53;3.60;;;1.40;98.20;;;;;;5111230;27;20491;-82
2021/01/07 04:11:03;;;;;;;5.43;3.58;;;1.40;98.20;;;;;;5153811;27;20051;-83
2021/01/07 04:13:30;;;;;;;6.13;3.53;;;1.40;98.20;;;;;;5144264;27;20039;-83
2021/01/07 04:15:56;;;;;;;6.45;3.40;;;1.40;98.20;;;;;;5121004;27;20108;-82
2021/01/07 04:18:22;;;;;;;6.85;3.80;;;1.40;98.20;;;;;;5128311;27;20066;-82
2021/01/07 04:20:48;;;;;;;7.07;3.78;;;1.40;98.30;;;;;;5120293;27;20057;-82
2021/01/07 04:23:15;;;;;;;6.30;3.55;;;1.40;98.20;;;;;;5129989;27;20053;-82
2021/01/07 04:25:41;;;;;;;7.88;3.92;;;1.40;98.60;;;;;;5121868;27;20122;-83
2021/01/07 04:28:07;;;;;;;6.70;3.78;;;1.40;98.30;;;;;;5123797;27;20470;-82
2021/01/07 04:30:32;;;;;;;5.88;3.35;;;1.40;98.30;;;;;;5123705;27;20395;-82
2021/01/07 04:32:58;;;;;;;7.47;3.28;;;1.40;98.20;;;;;;5121196;27;20039;-82
2021/01/07 04:35:24;;;;;;;6.53;3.92;;;1.40;98.30;;;;;;5125290;27;20126;-82
2021/01/07 04:37:49;;;;;;;6.88;3.20;;;1.40;98.30;;;;;;5140334;27;20035;-82
2021/01/07 04:40:15;;;;;;;5.97;3.30;;;1.40;98.30;;;;;;5125612;27;20035;-82
2021/01/07 04:42:42;;;;;;;8.15;3.60;;;1.30;98.30;;;;;;5145270;27;20043;-82
2021/01/07 04:45:09;;;;;;;6.05;3.97;;;1.40;98.30;;;;;;5125442;27;20043;-82
2021/01/07 04:47:36;;;;;;;7.65;3.55;;;1.40;98.30;;;;;;5122700;27;20089;-83
2021/01/07 04:50:02;;;;;;;6.85;3.75;;;1.40;98.30;;;;;;5120551;27;20039;-83
2021/01/07 04:52:28;;;;;;;7.15;3.55;;;1.40;98.30;;;;;;5101180;27;20086;-83
2021/01/07 04:54:54;;;;;;;7.82;3.88;;;1.40;98.30;;;;;;5143307;27;20352;-83
2021/01/07 04:57:20;;;;;;;7.88;3.13;;;1.40;98.40;;;;;;5139722;27;20030;-83
2021/01/07 04:59:47;;;;;;;8.38;3.40;;;1.40;98.40;;;;;;5130763;27;20095;-83
2021/01/07 05:02:16;;;;;;;6.75;3.47;;;1.40;98.40;;;;;;5118813;27;20031;-82
2021/01/07 05:04:48;;;;;;;6.55;3.20;;;1.40;98.30;;;;;;5146842;27;20545;-82
2021/01/07 05:07:16;;;;;;;7.63;3.67;;;1.40;98.30;;;;;;5119192;27;20359;-83
2021/01/07 05:09:43;;;;;;;6.40;3.10;;;1.40;98.30;;;;;;5120332;27;20161;-83
2021/01/07 05:12:09;;;;;;;7.22;3.47;;;1.40;98.30;;;;;;5132006;27;20409;-83
2021/01/07 05:14:42;;;;;;;7.95;4.20;;;1.30;98.30;;;;;;5117476;27;20043;-83
2021/01/07 05:17:10;;;;;;;7.57;3.17;;;1.30;98.30;;;;;;5127332;27;20050;-82
2021/01/07 05:19:37;;;;;;;6.47;2.97;;;1.30;98.30;;;;;;5124593;27;20042;-82
2021/01/07 05:22:03;;;;;;;5.70;3.20;;;1.30;98.30;;;;;;5127493;27;20103;-82
2021/01/07 05:24:30;;;;;;;7.30;3.13;;;1.30;98.30;;;;;;5104940;27;20147;-82
2021/01/07 05:26:56;;;;;;;7.82;3.30;;;1.30;98.40;;;;;;5128576;27;20459;-82
2021/01/07 05:29:22;;;;;;;6.80;3.67;;;1.30;98.30;;;;;;5120073;27;20043;-82
2021/01/07 05:31:54;;;;;;;8.55;3.30;;;1.30;98.30;;;;;;5124057;27;20103;-82
2021/01/07 05:34:20;;;;;;;7.88;3.03;;;1.30;98.40;;;;;;5121611;27;20531;-82
2021/01/07 05:36:46;;;;;;;8.50;3.25;;;1.30;98.40;;;;;;5146114;27;20219;-83
2021/01/07 05:39:12;;;;;;;6.95;3.22;;;1.30;98.70;;;;;;5137444;27;20074;-83
2021/01/07 05:41:38;;;;;;;7.28;3.50;;;1.30;98.40;;;;;;5156747;27;20074;-82
2021/01/07 05:44:08;;;;;;;6.50;3.45;;;1.30;98.50;;;;;;5136910;27;20135;-82
2021/01/07 05:46:35;;;;;;;8.27;3.63;;;1.40;98.60;;;;;;5144191;27;20031;-81
2021/01/07 05:49:01;;;;;;;7.60;3.63;;;1.40;98.60;;;;;;5143369;27;20528;-82
2021/01/07 05:51:29;;;;;;;7.05;3.28;;;1.40;98.60;;;;;;5141986;27;20035;-81
2021/01/07 05:53:56;;;;;;;9.32;3.75;;;1.40;98.60;;;;;;5146325;27;20031;-81
2021/01/07 05:56:23;;;;;;;10.85;4.18;;;1.40;98.60;;;;;;5121638;27;20015;-82
2021/01/07 05:58:50;;;;;;;8.02;3.88;;;1.40;98.90;;;;;;5141550;27;20042;-82
2021/01/07 06:01:17;;;;;;;7.13;3.55;;;1.40;98.70;;;;;;5123716;27;20072;-82
2021/01/07 06:03:52;;;;;;;5.85;3.13;;;1.50;98.70;;;;;;5147896;27;20034;-82
2021/01/07 06:06:20;;;;;;;6.32;3.83;;;1.50;98.70;;;;;;5113182;27;20046;-82
2021/01/07 06:08:50;;;;;;;10.35;3.45;;;1.40;98.60;;;;;;5127480;27;20275;-83
2021/01/07 06:11:17;;;;;;;8.88;3.55;;;1.50;98.70;;;;;;5128148;27;20154;-82
2021/01/07 06:13:48;;;;;;;7.18;3.92;;;1.40;98.70;;;;;;5123557;27;20571;-82
2021/01/07 06:16:16;;;;;;;8.48;3.75;;;1.50;98.70;;;;;;5119872;27;20139;-82
2021/01/07 06:18:42;;;;;;;8.07;3.28;;;1.50;98.70;;;;;;5114097;27;20599;-82
2021/01/07 06:21:10;;;;;;;8.43;3.67;;;1.50;98.80;;;;;;5116532;27;20070;-83
2021/01/07 06:23:47;;;;;;;8.23;3.53;;;1.50;98.80;;;;;;5117815;28;20570;-82
2021/01/07 06:26:26;;;;;;;7.03;3.80;;;1.50;98.80;;;;;;5118114;28;20112;-82
2021/01/07 06:28:54;;;;;;;10.23;3.97;;;1.50;98.80;;;;;;5117035;28;20123;-81
2021/01/07 06:31:20;;;;;;;8.23;4.13;;;1.50;98.80;;;;;;5127209;28;20158;-81
2021/01/07 06:33:49;;;;;;;11.80;6.32;;;1.50;98.80;;;;;;5120911;27;20531;-81
2021/01/07 06:36:15;;;;;;;11.85;4.93;;;1.50;98.80;;;;;;5123930;27;20089;-81
2021/01/07 06:38:51;;;;;;;9.70;4.78;;;1.60;98.90;;;;;;5120708;28;20085;-81
2021/01/07 06:41:18;;;;;;;11.88;4.82;;;1.60;98.90;;;;;;5126186;28;20044;-82
2021/01/07 06:43:48;;;;;;;8.48;4.05;;;1.60;98.90;;;;;;5118626;28;20043;-83
2021/01/07 06:46:41;;;;;;;7.63;3.70;;;1.60;99.00;;;;;;5133801;28;20075;-83
2021/01/07 06:49:26;;;;;;;6.07;3.40;;;1.60;99.00;;;;;;5115013;28;20060;-82
2021/01/07 06:52:01;;;;;;;9.52;4.32;;;1.60;99.00;;;;;;5127678;28;20043;-83
2021/01/07 06:54:33;;;;;;;12.70;4.22;;;1.60;99.00;;;;;;5120440;28;20066;-82
2021/01/07 06:57:06;;;;;;;10.13;3.97;;;1.60;99.00;;;;;;5127844;28;20028;-82
2021/01/07 06:59:33;;;;;;;10.13;4.38;;;1.70;99.00;;;;;;5124872;27;20044;-82
2021/01/07 07:01:59;;;;;;;11.45;4.20;;;1.60;99.00;;;;;;5122176;28;20055;-81
2021/01/07 07:04:30;;;;;;;6.90;3.85;;;1.70;99.00;;;;;;5120869;27;20099;-84
2021/01/07 07:07:03;;;;;;;8.40;3.60;;;1.70;99.10;;;;;;5126637;27;20043;-84
2021/01/07 07:09:38;;;;;;;12.82;5.18;;;1.70;99.10;;;;;;5127619;27;20082;-85
2021/01/07 07:12:05;;;;;;;10.48;4.20;;;1.70;99.20;;;;;;5125507;27;20038;-83
2021/01/07 07:14:34;;;;;;;8.25;4.03;;;1.70;99.20;;;;;;5123830;27;20047;-83
2021/01/07 07:17:08;;;;;;;10.70;4.85;;;1.70;99.20;;;;;;5128537;27;20038;-83
2021/01/07 07:19:37;;;;;;;9.35;4.93;;;1.80;99.20;;;;;;5125765;27;20067;-84
2021/01/07 07:22:04;;;;;;;9.48;4.80;;;1.80;99.20;;;;;;5129555;27;20039;-84
2021/01/07 07:24:53;;;;;;;10.95;4.95;;;1.80;99.30;;;;;;5143723;27;20373;-86
2021/01/07 07:28:12;;;;;;;10.90;4.75;;;1.80;99.30;;;;;;5110684;28;20048;-84
2021/01/07 07:31:03;;;;;;;9.57;5.22;;;1.80;99.30;;;;;;5045433;28;20072;-84
2021/01/07 07:34:03;;;;;;;8.98;4.75;;;1.80;99.30;;;;;;5045509;28;20057;-84
2021/01/07 07:36:33;;;;;;;10.25;4.55;;;1.80;99.30;;;;;;5035235;28;20123;-83
2021/01/07 07:39:02;;;;;;;9.32;5.00;;;1.80;99.30;;;;;;5036581;28;20136;-83
2021/01/07 07:41:29;;;;;;;11.57;5.40;;;1.90;99.40;;;;;;5035413;28;20607;-84
2021/01/07 07:43:56;;;;;;;14.75;5.50;;;1.80;99.40;;;;;;5054655;28;20500;-84
2021/01/07 07:46:33;;;;;;;12.57;5.28;;;1.90;99.40;;;;;;5016252;28;20048;-86
2021/01/07 07:49:03;;;;;;;12.63;6.10;;;1.90;99.40;;;;;;5056174;28;20051;-84
2021/01/07 07:51:30;;;;;;;10.25;6.13;;;1.90;99.40;;;;;;5073738;28;20115;-83
2021/01/07 07:54:25;;;;;;;15.63;7.10;;;1.90;99.40;;;;;;5079762;28;20123;-87
2021/01/07 07:57:24;;;;;;;14.32;5.80;;;1.90;99.40;;;;;;5071626;28;20651;-85
2021/01/07 08:00:16;;;;;;;13.18;6.05;;;1.90;99.40;;;;;;5098165;28;20095;-84
2021/01/07 08:02:49;;;;;;;12.05;5.93;;;2.00;99.50;;;;;;5106556;28;20139;-83
2021/01/07 08:05:28;;;;;;;10.55;5.75;;;1.90;99.50;;;;;;5119778;27;20494;-83
2021/01/07 08:07:58;;;;;;;16.55;6.70;;;2.00;99.60;;;;;;5126017;27;20039;-84
2021/01/07 08:10:46;;;;;;;13.40;6.75;;;2.00;99.60;;;;;;5152296;27;20045;-84
2021/01/07 08:13:12;;;;;;;16.70;6.68;;;2.10;99.70;;;;;;5146219;27;20058;-84
2021/01/07 08:15:37;;;;;;;12.98;6.05;;;2.10;99.70;;;;;;5152914;27;20031;-84
2021/01/07 08:18:27;;;;;;;15.77;6.47;;;2.10;99.70;;;;;;5121962;27;20046;-83
2021/01/07 08:21:15;;;;;;;14.32;6.72;;;2.20;99.70;;;;;;5112258;27;20088;-84
2021/01/07 08:23:43;;;;;;;11.18;5.88;;;2.20;99.70;;;;;;5124928;27;20050;-82
2021/01/07 08:26:31;;;;;;;14.27;7.43;;;2.20;99.70;;;;;;5132690;27;20047;-85
2021/01/07 08:29:13;;;;;;;11.82;6.97;;;2.20;99.80;;;;;;5145611;27;20045;-86
2021/01/07 08:32:00;;;;;;;10.90;6.68;;;2.20;99.80;;;;;;5108031;27;20758;-84
2021/01/07 08:34:29;;;;;;;12.38;6.38;;;2.20;99.90;;;;;;5104447;27;20082;-85
2021/01/07 08:37:31;;;;;;;9.52;5.63;;;2.30;99.80;;;;;;5131407;27;20103;-87
2021/01/07 08:40:03;;;;;;;13.38;6.50;;;2.30;99.80;;;;;;5135232;27;20034;-83
2021/01/07 08:42:36;;;;;;;12.70;6.55;;;2.30;99.90;;;;;;5126575;27;20064;-83
2021/01/07 08:45:07;;;;;;;14.32;6.75;;;2.30;99.90;;;;;;5128968;27;20050;-83
2021/01/07 08:47:33;;;;;;;13.80;6.32;;;2.30;99.90;;;;;;5129252;27;20036;-83
2021/01/07 08:50:09;;;;;;;13.95;7.05;;;2.40;99.90;;;;;;5124641;27;20114;-83
2021/01/07 08:52:56;;;;;;;14.77;6.78;;;2.30;99.90;;;;;;5157420;27;20039;-83
2021/01/07 08:55:51;;;;;;;14.20;6.80;;;2.40;99.90;;;;;;5128211;27;20554;-84
2021/01/07 08:58:27;;;;;;;;;;;2.40;99.90;;;;;;5108462;27;20081;-83
2021/01/07 09:00:56;;;;;;;13.38;6.80;;;2.40;99.80;;;;;;5133253;27;19941;-83
2021/01/07 09:03:22;;;;;;;12.55;6.43;;;2.40;99.80;;;;;;5094068;27;20122;-82
2021/01/07 09:05:48;;;;;;;10.57;6.50;;;2.40;99.80;;;;;;5112959;27;20078;-83
2021/01/07 09:08:15;;;;;;;8.50;5.40;;;2.50;99.80;;;;;;5132800;27;20507;-81
2021/01/07 09:10:41;;;;;;;10.27;5.70;;;2.50;99.80;;;;;;5102820;27;20046;-83
2021/01/07 09:13:26;;;;;;;14.70;7.03;;;2.50;99.80;;;;;;5123874;27;20047;-84
2021/01/07 09:15:52;;;;;;;14.45;6.70;;;2.60;99.90;;;;;;5138937;27;20046;-83
2021/01/07 09:18:20;;;;;;;9.07;5.10;;;2.60;99.90;;;;;;5146193;27;20051;-84
2021/01/07 09:20:46;;;;;;;11.07;5.85;;;2.50;99.80;;;;;;5142926;27;20035;-83
2021/01/07 09:23:16;;;;;;;10.40;6.35;;;2.60;99.80;;;;;;5136867;27;20061;-85
2021/01/07 09:25:43;;;;;;;12.63;6.82;;;2.60;99.80;;;;;;5109907;27;20128;-82
2021/01/07 09:28:09;;;;;;;11.93;6.03;;;2.60;99.80;;;;;;5151736;27;20100;-82
2021/01/07 09:30:36;;;;;;;13.60;7.03;;;2.60;99.80;;;;;;5142747;27;20062;-82
2021/01/07 09:33:02;;;;;;;11.70;7.50;;;2.70;99.90;;;;;;5138266;27;20064;-82
2021/01/07 09:35:29;;;;;;;11.38;5.78;;;2.70;99.90;;;;;;5109839;27;20050;-82
2021/01/07 09:37:58;;;;;;;9.98;5.53;;;2.70;99.80;;;;;;5147082;27;20053;-83
2021/01/07 09:40:24;;;;;;;11.95;5.45;;;2.70;99.80;;;;;;5123288;27;20057;-80
2021/01/07 09:42:50;;;;;;;9.60;6.18;;;2.80;99.80;;;;;;5131396;27;20146;-82
2021/01/07 09:45:16;;;;;;;11.15;5.50;;;2.80;99.80;;;;;;5145534;27;20039;-82
2021/01/07 09:47:41;;;;;;;12.50;6.43;;;2.80;99.80;;;;;;5149587;27;20113;-82
2021/01/07 09:50:09;;;;;;;13.75;6.03;;;2.80;99.70;;;;;;5122693;27;20051;-83
2021/01/07 09:52:36;;;;;;;10.85;6.80;;;2.80;99.70;;;;;;5093314;27;20055;-82
2021/01/07 09:55:06;;;;;;;9.23;5.28;;;3.00;99.80;;;;;;5129746;27;20035;-82
2021/01/07 09:57:32;;;;;;;11.13;5.82;;;2.90;99.80;;;;;;5143454;27;20081;-81
2021/01/07 10:00:05;;;;;;;11.57;6.15;;;2.90;99.80;;;;;;5127238;27;20057;-85
2021/01/07 10:02:34;;;;;;;14.25;7.13;;;3.00;99.80;;;;;;5144674;27;20061;-84
2021/01/07 10:05:10;;;;;;;8.95;5.15;;;3.00;99.50;;;;;;5129875;27;20083;-82
2021/01/07 10:07:52;;;;;;;11.63;6.57;;;2.90;99.50;;;;;;5112770;27;20030;-84
2021/01/07 10:10:21;;;;;;;11.75;5.68;;;3.00;99.70;;;;;;5119520;27;20047;-82
2021/01/07 10:12:53;;;;;;;10.02;5.10;;;3.00;99.90;;;;;;5121698;27;20031;-84
2021/01/07 10:15:42;;;;;;;7.38;4.65;;;3.10;99.70;;;;;;5127610;27;20046;-85
2021/01/07 10:18:49;;;;;;;13.02;5.65;;;3.10;99.70;;;;;;5103913;27;20046;-84
2021/01/07 10:25:58;;;;;;;10.18;5.10;;;3.20;99.60;;;;;;5006904;28;20054;-84
2021/01/07 10:28:59;;;;;;;7.03;4.55;;;3.10;99.40;;;;;;4981153;28;20046;-85
2021/01/07 10:32:26;;;;;;;;;;;;;;;;;;;;;
2021/01/07 10:42:23;;;;;;;9.00;4.60;;;3.40;99.30;;;;;;4801784;29;20082;-83
2021/01/07 10:45:12;;;;;;;7.85;4.90;;;3.50;99.30;;;;;;5102907;27;20425;-82
2021/01/07 10:47:45;;;;;;;10.80;5.18;;;3.50;99.10;;;;;;5074708;28;20051;-82
2021/01/07 10:50:28;;;;;;;7.82;5.20;;;3.50;98.80;;;;;;5084325;28;20745;-83
2021/01/07 10:53:13;;;;;;;6.93;4.80;;;3.50;98.90;;;;;;5074006;28;20067;-83
2021/01/07 10:56:14;;;;;;;9.32;4.53;;;3.50;98.60;;;;;;5099084;28;20098;-83
2021/01/07 10:59:25;;;;;;;11.00;5.05;;;3.50;98.60;;;;;;5096531;28;20127;-83
2021/01/07 11:02:17;;;;;;;8.93;3.83;;;3.50;98.70;;;;;;5065947;28;20044;-83
2021/01/07 11:05:11;;;;;;;6.60;4.05;;;3.50;98.60;;;;;;5090047;28;20515;-83
2021/01/07 11:08:26;;;;;;;6.75;3.95;;;3.50;98.60;;;;;;5101803;28;20050;-84
2021/01/07 11:10:54;;;;;;;6.28;3.88;;;3.60;98.70;;;;;;5073613;28;20412;-83
2021/01/07 11:13:27;;;;;;;9.18;4.32;;;3.60;98.70;;;;;;5089068;28;20048;-83
2021/01/07 11:16:20;;;;;;;7.20;4.15;;;3.60;98.60;;;;;;5094238;28;20104;-83
2021/01/07 11:18:49;;;;;;;9.30;4.13;;;3.60;98.60;;;;;;5078419;28;20151;-83
2021/01/07 11:21:23;;;;;;;5.53;3.75;;;3.60;98.60;;;;;;5096831;28;20157;-83
2021/01/07 11:23:50;;;;;;;9.50;4.47;;;3.70;98.60;;;;;;5083764;28;20040;-83
2021/01/07 11:26:21;;;;;;;8.80;3.70;;;3.70;98.70;;;;;;5076502;28;20484;-83
2021/01/07 11:28:51;;;;;;;5.03;2.95;;;3.80;98.70;;;;;;5090747;28;20033;-83
2021/01/07 11:31:18;;;;;;;10.20;4.07;;;3.80;98.70;;;;;;5083418;28;20051;-84
2021/01/07 11:33:54;;;;;;;5.68;3.40;;;3.80;98.60;;;;;;5073307;28;20045;-83
2021/01/07 11:36:27;;;;;;;5.45;3.70;;;3.80;98.50;;;;;;5079152;28;20104;-83
2021/01/07 11:39:02;;;;;;;4.60;3.60;;;3.80;98.50;;;;;;5092648;28;20144;-83
2021/01/07 11:41:44;;;;;;;5.03;3.53;;;3.80;98.50;;;;;;5058584;28;20031;-83
2021/01/07 11:44:25;;;;;;;6.57;3.58;;;3.90;98.60;;;;;;5090933;28;20048;-83
2021/01/07 11:47:05;;;;;;;5.75;2.75;;;3.90;98.00;;;;;;5063267;28;20114;-83
2021/01/07 11:49:48;;;;;;;6.10;2.92;;;3.90;98.10;;;;;;5088767;28;20036;-84
2021/01/07 11:52:20;;;;;;;6.70;3.58;;;4.00;98.20;;;;;;5084678;28;20048;-84
2021/01/07 11:54:47;;;;;;;5.47;3.08;;;4.00;98.20;;;;;;5048721;28;20068;-83
2021/01/07 11:57:38;;;;;;;7.78;3.95;;;4.10;98.10;;;;;;5064987;28;20057;-83
2021/01/07 12:00:13;;;;;;;4.15;2.55;;;4.10;98.10;;;;;;5065919;28;20110;-83
2021/01/07 12:02:47;;;;;;;3.55;2.75;;;4.20;98.10;;;;;;5055348;28;20083;-83
2021/01/07 12:05:27;;;;;;;5.40;3.13;;;4.20;97.70;;;;;;5082206;28;20090;-83
2021/01/07 12:08:22;;;;;;;5.90;3.42;;;4.30;97.80;;;;;;5060217;28;20053;-83
2021/01/07 12:11:04;;;;;;;5.95;1.90;;;4.30;97.60;;;;;;5075464;28;20067;-83
2021/01/07 12:13:44;;;;;;;4.35;2.25;;;4.40;97.70;;;;;;5084005;28;20060;-83
2021/01/07 12:16:23;;;;;;;5.27;2.10;;;4.30;97.50;;;;;;5073681;28;20564;-85
2021/01/07 12:18:59;;;;;;;3.65;2.00;;;4.40;97.80;;;;;;5067970;28;20781;-82
2021/01/07 12:21:26;;;;;;;5.20;1.88;;;4.30;97.20;;;;;;5081413;28;20052;-82
2021/01/07 12:23:54;;;;;;;6.63;2.28;;;4.30;97.30;;;;;;5088337;28;20421;-82
2021/01/07 12:26:20;;;;;;;5.43;2.28;;;4.40;97.40;;;;;;5090523;28;20063;-82
2021/01/07 12:28:54;;;;;;;4.90;1.88;;;4.40;97.30;;;;;;5078983;28;20033;-83
2021/01/07 12:31:26;;;;;;;3.13;1.77;;;4.40;97.60;;;;;;5082375;28;20035;-82
2021/01/07 12:33:58;;;;;;;4.30;1.33;;;4.40;97.60;;;;;;5058219;28;20051;-82
2021/01/07 12:36:52;;;;;;;2.05;1.30;;;4.50;97.40;;;;;;5084949;28;20035;-81
2021/01/07 12:39:46;;;;;;;4.15;1.40;;;4.50;97.30;;;;;;5074693;28;20033;-81
2021/01/07 12:42:22;;;;;;;1.75;0.95;;;4.40;97.10;;;;;;5086557;28;20040;-81
2021/01/07 12:44:49;;;;;;;1.20;0.90;;;4.30;97.10;;;;;;5077972;28;20068;-82
2021/01/07 12:47:15;;;;;;;2.80;1.20;;;4.30;97.00;;;;;;5076865;28;20035;-82
2021/01/07 12:49:44;;;;;;;1.98;1.10;;;4.20;96.80;;;;;;5068130;28;20063;-83
2021/01/07 12:52:11;;;;;;;4.60;1.27;;;4.20;96.70;;;;;;5081351;28;20710;-82
2021/01/07 12:54:39;;;;;;;3.85;1.10;;;4.20;96.70;;;;;;5072610;28;20488;-82
2021/01/07 12:57:26;;;;;;;2.05;1.25;;;4.20;96.60;;;;;;5083851;28;20036;-82
2021/01/07 13:00:09;;;;;;;2.72;1.30;;;4.20;96.50;;;;;;5066690;28;20048;-82
2021/01/07 13:03:30;;;;;;;3.25;1.05;;;4.20;96.60;;;;;;5086345;28;20049;-81
2021/01/07 13:05:57;;;;;;;2.72;1.27;;;4.10;96.60;;;;;;5016063;28;20045;-81
2021/01/07 13:08:30;;;;;;;2.75;1.08;;;4.10;96.70;;;;;;5013665;28;20061;-82
2021/01/07 13:11:17;;;;;;;1.35;0.70;;;4.20;97.00;;;;;;5000244;28;20108;-82
2021/01/07 13:13:55;;;;;;;2.33;1.00;;;4.30;97.20;;;;;;4965995;28;20050;-83
2021/01/07 13:16:49;;;;;;;3.03;1.30;;;4.20;97.00;;;;;;4993370;28;20055;-82
2021/01/07 13:19:20;;;;;;;3.78;1.67;;;4.20;97.00;;;;;;4957340;28;20050;-82
2021/01/07 13:21:53;;;;;;;2.88;1.30;;;4.30;97.30;;;;;;4980059;28;20066;-82
2021/01/07 13:24:41;;;;;;;2.53;1.05;;;4.30;97.10;;;;;;4952258;28;20589;-83
2021/01/07 13:27:20;;;;;;;1.80;0.75;;;4.20;96.60;;;;;;4978610;28;20081;-83
2021/01/07 13:29:55;;;;;;;3.05;1.30;;;4.20;96.80;;;;;;4971061;28;20434;-82